CheckWX is a tool to help pilots better visualize weather data.  It is not intended as a substitute for an official pre-flight weather briefing.

14:57:31 UTC

MUCF TAF
Jaime Gonzalez Airport
Cienfuegos, Cuba
MUCF 211100Z 2112/2124 VRB03KT 9000 SCT020 BECMG 2115/2117 08010KT

Nov-21@
12:00 UTC

Nov-21 @ 12:00 UTC

Nov-21@
15:00 UTC

Nov-21 @ 15:00 UTC

MUCF 211100Z 2112/2124 VRB03KT 9000 SCT020
Wind
  • Variable at 3 KTS
Cloud Levels
  • Scattered at 2,000' AGL

Nov-21@
15:00 UTC

Nov-21 @ 15:00 UTC

Nov-22@
00:00 UTC

Nov-22 @ 00:00 UTC

BECMG 2115/2117 08010KT

Becoming

Becoming Conditions expected by Thu, Nov 21, 2019 @ 17:00 UTC

Wind
  • 080° at 10 KTS
Cloud Levels
  • Scattered at 2,000' AGL